createdAt,value
2022-10-09T00:04:47.677Z,100250.03
2022-10-09T00:14:49.219Z,100249.34
2022-10-09T00:24:50.615Z,100257.66
2022-10-09T00:34:51.980Z,100251.56
2022-10-09T00:45:00.603Z,100248.00
2022-10-09T00:55:02.187Z,100259.38
2022-10-09T01:05:04.224Z,100257.19
2022-10-09T01:15:26.139Z,100246.03
2022-10-09T01:25:46.162Z,100243.38
2022-10-09T01:35:49.261Z,100242.63
2022-10-09T01:45:51.448Z,100226.28
2022-10-09T01:56:01.941Z,100228.41
2022-10-09T02:06:06.955Z,100221.53
2022-10-09T02:16:42.463Z,100217.50
2022-10-09T02:26:43.983Z,100218.00
2022-10-09T02:36:45.669Z,100216.25
2022-10-09T02:46:47.070Z,100215.22
2022-10-09T02:56:48.604Z,100212.75
2022-10-09T03:06:49.976Z,100205.94
2022-10-09T03:16:51.361Z,100212.31
2022-10-09T03:26:53.111Z,100193.63
2022-10-09T03:36:54.491Z,100198.75
2022-10-09T03:46:55.920Z,100199.94
2022-10-09T03:56:57.311Z,100191.63
2022-10-09T04:06:58.700Z,100191.22
2022-10-09T04:17:00.066Z,100188.47
2022-10-09T04:27:01.458Z,100184.19
2022-10-09T04:37:02.838Z,100167.91
2022-10-09T04:47:05.439Z,100171.16
2022-10-09T04:57:09.590Z,100160.28
2022-10-09T05:07:10.977Z,100165.03
2022-10-09T05:17:14.798Z,100158.38
2022-10-09T05:27:16.567Z,100144.22
2022-10-09T05:37:17.944Z,100152.47
2022-10-09T05:47:19.667Z,100149.47
2022-10-09T05:57:21.050Z,100163.69
2022-10-09T06:07:22.416Z,100155.31
2022-10-09T06:17:23.789Z,100152.56
2022-10-09T06:27:25.235Z,100152.94
2022-10-09T06:37:26.611Z,100157.06
2022-10-09T06:47:28.006Z,100165.72
2022-10-09T06:57:29.462Z,100170.44
2022-10-09T07:07:30.878Z,100178.38
2022-10-09T07:17:32.551Z,100170.19
2022-10-09T07:27:35.111Z,100163.28
2022-10-09T07:37:36.564Z,100151.53
2022-10-09T07:47:37.963Z,100151.72
2022-10-09T07:57:39.418Z,100150.88
2022-10-09T08:07:40.845Z,100158.31
2022-10-09T08:17:42.513Z,100151.91
2022-10-09T08:27:43.919Z,100153.25
2022-10-09T08:37:45.308Z,100150.75
2022-10-09T08:47:56.906Z,100138.41
2022-10-09T08:58:04.406Z,100134.56
2022-10-09T09:08:12.037Z,100125.25
2022-10-09T09:18:26.136Z,100112.38
2022-10-09T09:28:32.906Z,100115.81
2022-10-09T09:39:01.230Z,100109.72
2022-10-09T09:49:03.780Z,100089.53
2022-10-09T09:59:07.485Z,100064.22
2022-10-09T10:09:27.262Z,100072.47
2022-10-09T10:19:29.760Z,100054.22
2022-10-09T10:29:39.128Z,100048.44
2022-10-09T10:39:45.705Z,100028.84
2022-10-09T10:49:47.172Z,100018.25
2022-10-09T11:00:05.435Z,100006.34
2022-10-09T11:10:31.205Z,99993.41
2022-10-09T11:20:41.730Z,99975.91
2022-10-09T11:30:48.367Z,99958.78
2022-10-09T11:40:49.775Z,99931.13
2022-10-09T11:51:34.343Z,99924.66
2022-10-09T12:01:40.365Z,99911.97
2022-10-09T12:11:41.797Z,99884.31
2022-10-09T12:21:47.384Z,99873.53
2022-10-09T12:31:48.746Z,99857.94
2022-10-09T12:41:52.110Z,99843.19
2022-10-09T12:51:56.325Z,99836.09
2022-10-09T13:01:58.616Z,99818.44
2022-10-09T13:12:22.005Z,99801.81
2022-10-09T13:22:33.614Z,99800.56
2022-10-09T13:32:37.312Z,99773.16
2022-10-09T13:42:38.978Z,99761.31
2022-10-09T14:02:46.739Z,99738.84
2022-10-09T14:12:48.597Z,99726.19
2022-10-09T14:22:50.582Z,99711.66
2022-10-09T14:32:52.498Z,99698.16
2022-10-09T14:42:54.041Z,99686.50
2022-10-09T14:52:55.431Z,99680.69
2022-10-09T15:02:59.591Z,99658.03
2022-10-09T15:13:01.289Z,99642.66
2022-10-09T15:23:02.725Z,99630.63
2022-10-09T15:33:04.151Z,99623.53
2022-10-09T15:43:05.522Z,99610.28
2022-10-09T15:53:13.938Z,99596.97
2022-10-09T16:03:15.696Z,99576.59
2022-10-09T16:13:17.176Z,99564.56
2022-10-09T16:23:18.545Z,99560.41
2022-10-09T16:33:19.919Z,99558.13
2022-10-09T16:43:21.285Z,99551.50
2022-10-09T16:53:23.242Z,99555.84
2022-10-09T17:03:24.610Z,99551.28
2022-10-09T17:13:25.995Z,99552.69
2022-10-09T17:23:27.383Z,99557.47
2022-10-09T17:33:29.081Z,99544.59
2022-10-09T17:43:30.453Z,99534.41
2022-10-09T17:53:31.991Z,99528.97
2022-10-09T18:03:33.655Z,99527.31
2022-10-09T18:13:36.008Z,99518.16
2022-10-09T18:23:37.563Z,99507.13
2022-10-09T18:33:38.947Z,99496.94
2022-10-09T18:43:40.344Z,99499.56
2022-10-09T18:53:42.764Z,99484.19
2022-10-09T19:03:46.152Z,99469.25
2022-10-09T19:13:50.624Z,99461.75
2022-10-09T19:23:52.649Z,99460.28
2022-10-09T19:33:54.010Z,99454.03
2022-10-09T19:43:55.427Z,99448.06
2022-10-09T20:04:01.894Z,99437.69
2022-10-09T20:14:03.462Z,99428.13
2022-10-09T20:24:05.991Z,99423.75
2022-10-09T20:34:07.605Z,99424.19
2022-10-09T20:44:19.350Z,99433.47
2022-10-09T20:54:22.378Z,99417.50
2022-10-09T21:04:29.356Z,99417.63
2022-10-09T21:14:31.968Z,99406.00
2022-10-09T21:24:33.376Z,99407.38
2022-10-09T21:34:36.499Z,99398.66
2022-10-09T21:44:38.108Z,99398.03
2022-10-09T21:54:39.497Z,99383.94
2022-10-09T22:04:40.866Z,99379.75
2022-10-09T22:14:42.348Z,99367.06
2022-10-09T22:24:43.732Z,99361.69
2022-10-09T22:34:45.234Z,99352.97
2022-10-09T22:44:46.622Z,99355.44
2022-10-09T22:54:54.432Z,99350.88
2022-10-09T23:04:56.745Z,99344.06
2022-10-09T23:15:01.281Z,99332.06
2022-10-09T23:25:03.450Z,99334.50
2022-10-09T23:35:07.793Z,99323.69
2022-10-09T23:45:12.265Z,99324.28
2022-10-09T23:55:13.661Z,99314.13
